Time;durP1;ratioP1;P1;durP2;ratioP2;P2;SDS_P1;SDS_P2;PMS_P1;PMS_P2;Temp;Humidity;BMP_temperature;BMP_pressure;BME280_temperature;BME280_humidity;BME280_pressure;Samples;Min_cycle;Max_cycle;Signal;HPM_P1;HPM_P2
2021/10/20 00:02:21;;;;;;;5.32;4.82;;;;;;;18.80;67.68;100920.25;4896606;29;20038;-85
2021/10/20 00:04:47;;;;;;;6.22;5.15;;;;;;;18.78;67.60;100914.19;4809859;29;1181850;-86
2021/10/20 00:07:13;;;;;;;5.70;5.10;;;;;;;18.79;67.50;100900.28;4851313;29;20047;-87
2021/10/20 00:09:38;;;;;;;5.78;5.18;;;;;;;18.79;67.66;100902.88;4866647;29;20048;-86
2021/10/20 00:12:04;;;;;;;5.40;4.90;;;;;;;18.79;67.67;100908.09;4866683;29;20123;-87
2021/10/20 00:14:32;;;;;;;6.22;5.30;;;;;;;18.79;67.72;100882.03;4897749;29;20030;-87
2021/10/20 00:16:57;;;;;;;5.28;4.78;;;;;;;18.78;67.59;100893.31;4866545;29;20056;-88
2021/10/20 00:19:23;;;;;;;5.60;4.75;;;;;;;18.79;67.47;100887.25;4899198;29;20107;-86
2021/10/20 00:21:48;;;;;;;6.13;4.90;;;;;;;18.79;67.54;100883.75;4867483;29;20032;-88
2021/10/20 00:24:14;;;;;;;5.65;4.68;;;;;;;18.79;67.71;100883.75;4897617;29;20037;-88
2021/10/20 00:26:39;;;;;;;7.60;4.65;;;;;;;18.79;67.23;100862.91;4866110;29;20036;-87
2021/10/20 00:29:05;;;;;;;6.40;4.85;;;;;;;18.78;67.46;100867.25;4867175;29;20037;-89
2021/10/20 00:31:30;;;;;;;5.07;4.57;;;;;;;18.79;67.51;100873.31;4881747;29;20116;-87
2021/10/20 00:33:56;;;;;;;5.35;4.85;;;;;;;18.77;67.41;100851.59;4881797;29;20105;-87
2021/10/20 00:36:21;;;;;;;5.57;5.00;;;;;;;18.76;67.70;100858.56;4882006;29;20028;-87
2021/10/20 00:38:47;;;;;;;5.50;4.53;;;;;;;18.77;67.43;100855.09;4850689;29;20036;-87
2021/10/20 00:41:12;;;;;;;5.20;4.70;;;;;;;18.77;67.42;100867.22;4898316;29;20035;-89
2021/10/20 00:43:38;;;;;;;4.97;4.32;;;;;;;18.77;67.66;100855.09;4881419;29;20032;-87
2021/10/20 00:46:04;;;;;;;5.25;4.70;;;;;;;18.76;67.52;100845.53;4881508;29;20029;-86
2021/10/20 00:48:29;;;;;;;5.25;4.75;;;;;;;18.77;67.51;100847.25;4854047;29;20028;-86
2021/10/20 00:50:55;;;;;;;5.00;4.50;;;;;;;18.76;67.60;100847.28;4885146;29;20039;-85
2021/10/20 00:53:20;;;;;;;5.25;4.75;;;;;;;18.76;67.47;100853.34;4900811;29;20032;-88
2021/10/20 00:55:47;;;;;;;5.05;4.55;;;;;;;18.77;67.77;100857.69;4869515;29;20120;-86
2021/10/20 00:58:13;;;;;;;5.75;4.82;;;;;;;18.77;67.35;100862.91;4869579;29;20434;-87
2021/10/20 01:00:39;;;;;;;5.78;4.88;;;;;;;18.76;67.60;100866.38;4885189;29;20465;-87
2021/10/20 01:03:04;;;;;;;5.00;4.50;;;;;;;18.76;67.41;100858.56;4900634;29;20031;-84
2021/10/20 01:05:30;;;;;;;5.35;4.57;;;;;;;18.76;67.42;100842.91;4869066;29;20055;-86
2021/10/20 01:07:55;;;;;;;4.75;4.32;;;;;;;18.76;67.28;100840.31;4869558;29;20036;-85
2021/10/20 01:10:21;;;;;;;4.95;4.45;;;;;;;18.76;67.22;100840.31;4884885;29;20032;-87
2021/10/20 01:12:47;;;;;;;5.32;4.60;;;;;;;18.75;67.50;100846.44;4900678;29;20525;-86
2021/10/20 01:15:18;;;;;;;5.68;4.78;;;;;;;18.76;67.52;100834.25;4884833;29;20037;-86
2021/10/20 01:17:45;;;;;;;5.45;4.75;;;;;;;18.75;67.67;100820.34;4900193;29;20051;-86
2021/10/20 01:20:11;;;;;;;4.68;4.15;;;;;;;18.75;67.52;100815.13;4884763;29;20032;-85
2021/10/20 01:22:36;;;;;;;4.90;4.43;;;;;;;18.74;67.38;100821.22;4884498;29;20029;-86
2021/10/20 01:25:04;;;;;;;5.18;4.68;;;;;;;18.75;67.54;100815.13;4884422;29;20048;-87
2021/10/20 01:27:30;;;;;;;5.05;4.43;;;;;;;18.75;67.15;100809.03;4869001;29;20355;-86
2021/10/20 01:29:59;;;;;;;5.68;4.80;;;;;;;18.75;67.22;100817.75;4901038;29;20083;-86
2021/10/20 01:32:26;;;;;;;5.22;4.47;;;;;;;18.74;67.31;100820.38;4868842;29;20051;-85
2021/10/20 01:34:55;;;;;;;5.20;4.70;;;;;;;18.75;67.23;100806.44;4869033;29;20040;-83
2021/10/20 01:37:25;;;;;;;5.68;4.80;;;;;;;18.74;67.09;100799.50;4853929;29;20052;-83
2021/10/20 01:39:51;;;;;;;4.80;4.30;;;;;;;18.74;67.25;100802.97;4900805;29;20028;-86
2021/10/20 01:42:18;;;;;;;4.72;4.32;;;;;;;18.74;67.35;100796.91;4868844;29;20029;-87
2021/10/20 01:44:43;;;;;;;5.63;5.00;;;;;;;18.74;67.09;100789.94;4899819;29;20025;-84
2021/10/20 01:47:09;;;;;;;5.28;4.63;;;;;;;18.75;67.15;100796.00;4852953;29;20084;-85
2021/10/20 01:49:34;;;;;;;5.10;4.60;;;;;;;18.75;67.20;100799.50;4900804;29;20028;-86
2021/10/20 01:52:00;;;;;;;5.45;4.45;;;;;;;18.75;67.35;100790.78;4899636;29;20048;-86
2021/10/20 01:54:25;;;;;;;5.60;4.65;;;;;;;18.74;66.98;100784.72;4868723;29;20036;-86
2021/10/20 01:56:51;;;;;;;5.68;4.90;;;;;;;18.74;67.09;100779.50;4868488;29;20024;-86
2021/10/20 01:59:19;;;;;;;4.95;4.45;;;;;;;18.74;67.31;100770.84;4868099;29;20481;-85
2021/10/20 02:01:44;;;;;;;5.22;4.55;;;;;;;18.74;67.01;100773.44;4868639;29;20037;-86
2021/10/20 02:04:11;;;;;;;5.15;4.63;;;;;;;18.73;67.07;100764.78;4868105;29;20453;-86
2021/10/20 02:06:37;;;;;;;5.82;4.72;;;;;;;18.75;67.11;100769.94;4898899;29;20478;-85
2021/10/20 02:09:06;;;;;;;4.90;4.40;;;;;;;18.75;67.16;100765.59;4868385;29;20127;-86
2021/10/20 02:11:31;;;;;;;5.53;4.80;;;;;;;18.74;67.12;100748.22;4899171;29;20155;-86
2021/10/20 02:13:56;;;;;;;6.13;4.65;;;;;;;18.73;67.26;100736.09;4883721;29;20041;-86
2021/10/20 02:16:22;;;;;;;5.65;4.85;;;;;;;18.74;67.39;100736.94;4883528;29;20079;-86
2021/10/20 02:18:47;;;;;;;4.72;4.22;;;;;;;18.74;67.12;100729.13;4883600;29;20024;-87
2021/10/20 02:21:12;;;;;;;5.60;4.75;;;;;;;18.74;67.13;100731.75;4867848;29;20501;-84
2021/10/20 02:23:38;;;;;;;5.20;4.70;;;;;;;18.73;67.17;100711.75;4883649;29;20029;-86
2021/10/20 02:26:03;;;;;;;5.30;4.80;;;;;;;18.75;66.64;100720.41;4899670;29;20045;-84
2021/10/20 02:28:29;;;;;;;5.13;4.63;;;;;;;18.75;66.92;100712.59;4883571;29;20029;-84
2021/10/20 02:30:54;;;;;;;6.15;4.68;;;;;;;18.74;67.41;100716.94;4883301;29;20393;-86
2021/10/20 02:33:20;;;;;;;5.32;4.82;;;;;;;18.74;67.30;100701.31;4883336;29;20067;-86
2021/10/20 02:35:45;;;;;;;5.10;4.60;;;;;;;18.74;67.19;100711.72;4867590;29;20032;-87
2021/10/20 02:38:11;;;;;;;4.97;4.32;;;;;;;18.74;67.11;100692.63;4867867;29;20028;-86
2021/10/20 02:40:36;;;;;;;5.50;4.35;;;;;;;18.74;66.98;100688.28;4852426;29;20035;-87
2021/10/20 02:43:02;;;;;;;4.80;4.30;;;;;;;18.74;67.40;100688.28;4883142;29;20084;-84
2021/10/20 02:45:30;;;;;;;5.82;4.90;;;;;;;18.74;67.07;100679.59;4883256;29;20057;-86
2021/10/20 02:47:56;;;;;;;6.75;5.22;;;;;;;18.73;67.32;100678.75;4883215;29;20118;-87
2021/10/20 02:50:22;;;;;;;6.00;5.10;;;;;;;18.74;67.20;100670.03;4898650;29;20119;-86
2021/10/20 02:52:48;;;;;;;4.95;4.45;;;;;;;18.75;67.30;100669.16;4883342;29;20038;-85
2021/10/20 02:55:13;;;;;;;5.10;4.60;;;;;;;18.74;67.04;100672.63;4899740;29;20029;-86
2021/10/20 02:57:38;;;;;;;5.63;4.78;;;;;;;18.74;67.44;100677.84;4882540;29;20452;-87
2021/10/20 03:00:05;;;;;;;5.53;4.28;;;;;;;18.73;67.13;100670.94;4867250;29;20028;-86
2021/10/20 03:02:31;;;;;;;5.38;4.45;;;;;;;18.74;67.06;100669.19;4882697;29;20121;-86
2021/10/20 03:04:56;;;;;;;6.13;4.55;;;;;;;18.74;67.29;100663.97;4882561;29;20032;-85
2021/10/20 03:07:21;;;;;;;6.15;4.60;;;;;;;18.73;67.06;100654.41;4868137;29;20556;-85
2021/10/20 03:09:47;;;;;;;5.57;5.07;;;;;;;18.73;67.06;100652.69;4882157;29;20107;-85
2021/10/20 03:12:12;;;;;;;5.47;4.97;;;;;;;18.73;66.75;100657.91;4899406;29;20485;-85
2021/10/20 03:14:37;;;;;;;6.10;5.20;;;;;;;18.75;66.97;100652.63;4882439;29;20036;-85
2021/10/20 03:17:03;;;;;;;5.88;5.10;;;;;;;18.74;66.84;100653.53;4866810;29;20031;-86
2021/10/20 03:19:28;;;;;;;5.25;4.75;;;;;;;18.74;67.14;100654.38;4897909;29;20032;-86
2021/10/20 03:21:54;;;;;;;5.32;4.60;;;;;;;18.73;66.91;100638.75;4882451;29;20088;-86
2021/10/20 03:24:20;;;;;;;5.93;5.32;;;;;;;18.73;67.07;100638.75;4897991;29;20089;-87
2021/10/20 03:26:45;;;;;;;5.63;5.05;;;;;;;18.74;66.92;100630.06;4866837;29;20029;-86
2021/10/20 03:29:11;;;;;;;5.22;4.72;;;;;;;18.74;66.88;100645.72;4882312;29;20079;-86
2021/10/20 03:31:36;;;;;;;5.65;5.05;;;;;;;18.74;67.28;100640.50;4866647;29;20375;-87
2021/10/20 03:34:02;;;;;;;5.65;5.05;;;;;;;18.74;66.90;100643.09;4882309;29;20111;-86
2021/10/20 03:36:28;;;;;;;5.63;5.03;;;;;;;18.72;66.87;100627.47;4882190;29;20052;-83
2021/10/20 03:38:53;;;;;;;5.65;4.72;;;;;;;18.73;66.92;100631.81;4882094;29;20035;-86
2021/10/20 03:41:19;;;;;;;4.97;4.28;;;;;;;18.73;67.01;100631.81;4882066;29;20393;-87
2021/10/20 03:43:44;;;;;;;5.82;5.00;;;;;;;18.74;66.80;100632.69;4882048;29;20032;-86
2021/10/20 03:46:09;;;;;;;5.55;5.03;;;;;;;18.73;66.79;100628.34;4882002;29;20389;-85
2021/10/20 03:48:35;;;;;;;5.43;4.93;;;;;;;18.74;67.20;100617.03;4866737;29;20123;-82
2021/10/20 03:51:00;;;;;;;5.75;4.65;;;;;;;18.74;66.77;100617.03;4866363;29;20036;-85
2021/10/20 03:53:26;;;;;;;5.80;5.15;;;;;;;18.73;66.85;100615.31;4866269;29;20033;-85
2021/10/20 03:55:51;;;;;;;5.75;5.15;;;;;;;18.74;66.88;100610.06;4897357;29;20039;-86
2021/10/20 03:58:24;;;;;;;6.53;4.95;;;;;;;18.74;66.72;100602.25;4866863;29;20033;-87
2021/10/20 04:00:52;;;;;;;5.45;4.80;;;;;;;18.74;66.83;100601.41;4867529;29;20501;-87
2021/10/20 04:03:17;;;;;;;5.68;5.13;;;;;;;18.73;66.61;100605.75;4882663;29;20037;-87
2021/10/20 04:05:43;;;;;;;6.72;5.30;;;;;;;18.74;66.87;100601.41;4851613;29;20067;-86
2021/10/20 04:08:08;;;;;;;6.10;5.50;;;;;;;18.73;66.78;100600.53;4882084;29;20039;-86
2021/10/20 04:10:36;;;;;;;5.43;4.93;;;;;;;18.73;66.99;100590.13;4882105;29;20060;-87
2021/10/20 04:13:02;;;;;;;6.90;5.45;;;;;;;18.73;66.49;100586.63;4881988;29;20044;-86
2021/10/20 04:15:27;;;;;;;6.00;5.40;;;;;;;18.74;66.50;100572.72;4897800;29;20027;-87
2021/10/20 04:17:53;;;;;;;6.07;5.47;;;;;;;18.72;66.69;100572.75;4866340;29;20033;-87
2021/10/20 04:20:20;;;;;;;6.07;5.40;;;;;;;18.72;67.00;100577.97;4897651;29;20039;-86
2021/10/20 04:22:48;;;;;;;5.88;5.20;;;;;;;18.73;66.53;100571.00;4885902;29;20087;-87
2021/10/20 04:25:13;;;;;;;7.25;5.55;;;;;;;18.73;66.63;100569.28;4885459;29;20128;-87
2021/10/20 04:27:40;;;;;;;6.50;5.53;;;;;;;18.74;66.59;100551.88;4854620;29;20537;-86
2021/10/20 04:30:07;;;;;;;5.88;5.32;;;;;;;18.72;66.59;100554.50;4885638;29;20829;-82
2021/10/20 04:32:33;;;;;;;6.43;5.43;;;;;;;18.73;66.85;100548.41;4885626;29;20043;-88
2021/10/20 04:35:00;;;;;;;7.03;5.68;;;;;;;18.73;66.89;100552.75;4886277;29;20032;-91
2021/10/20 04:37:26;;;;;;;6.18;5.57;;;;;;;18.73;66.52;100540.59;4885625;29;20036;-89
2021/10/20 04:39:53;;;;;;;6.32;5.63;;;;;;;18.72;66.64;100538.84;4870463;29;20447;-89
2021/10/20 04:42:20;;;;;;;5.97;5.47;;;;;;;18.73;66.37;100532.78;4885848;29;20028;-89
2021/10/20 04:44:46;;;;;;;5.60;5.03;;;;;;;18.73;66.35;100538.00;4870461;29;20042;-89
2021/10/20 04:47:11;;;;;;;6.85;5.65;;;;;;;18.73;66.44;100538.00;4885404;29;20154;-88
2021/10/20 04:49:37;;;;;;;6.28;5.68;;;;;;;18.73;66.37;100535.38;4885487;29;20466;-91
2021/10/20 04:52:03;;;;;;;5.95;5.35;;;;;;;18.73;66.45;100537.09;4870233;29;20036;-88
2021/10/20 04:54:29;;;;;;;6.55;5.57;;;;;;;18.73;66.59;100532.78;4854722;29;20037;-91
2021/10/20 04:56:54;;;;;;;6.45;5.50;;;;;;;18.73;66.33;100540.59;4870023;29;20562;-90
2021/10/20 04:59:23;;;;;;;6.07;5.35;;;;;;;18.73;66.61;100556.22;4854914;29;20044;-91
2021/10/20 05:01:52;;;;;;;8.15;5.47;;;;;;;18.74;66.48;100552.72;4855237;29;20092;-92
2021/10/20 05:04:22;;;;;;;7.20;5.38;;;;;;;18.73;66.60;100538.00;4885511;29;20036;-91
2021/10/20 05:06:48;;;;;;;5.72;5.13;;;;;;;18.74;66.43;100549.25;4900646;29;20051;-87
2021/10/20 05:09:13;;;;;;;6.20;5.60;;;;;;;18.74;66.28;100533.63;4869457;29;20033;-89
2021/10/20 05:11:42;;;;;;;5.70;5.20;;;;;;;18.74;66.40;100551.88;4886060;29;20092;-89
2021/10/20 05:14:07;;;;;;;6.43;5.70;;;;;;;18.73;66.53;100531.88;4900852;29;20029;-90
2021/10/20 05:16:33;;;;;;;6.22;5.63;;;;;;;18.74;66.61;100533.63;4884892;29;20038;-89
2021/10/20 05:18:58;;;;;;;7.75;5.72;;;;;;;18.78;66.62;100530.97;4869335;29;20060;-86
2021/10/20 05:21:23;;;;;;;13.88;8.27;;;;;;;18.81;66.38;100532.66;4869111;29;20482;-91
2021/10/20 05:23:50;;;;;;;15.73;9.07;;;;;;;18.83;66.39;100536.09;4869240;29;20039;-86
2021/10/20 05:26:17;;;;;;;14.68;8.82;;;;;;;18.87;66.09;100535.13;4869870;29;20025;-88
2021/10/20 05:28:42;;;;;;;15.98;9.27;;;;;;;18.86;66.22;100520.41;4900687;29;20131;-86
2021/10/20 05:31:08;;;;;;;10.80;8.95;;;;;;;18.86;66.38;100523.00;4884471;29;20040;-86
2021/10/20 05:33:33;;;;;;;12.50;7.88;;;;;;;18.84;66.35;100520.41;4868595;29;20388;-88
2021/10/20 05:35:59;;;;;;;21.88;8.25;;;;;;;18.86;66.41;100520.41;4884708;29;20056;-89
2021/10/20 05:38:24;;;;;;;13.00;7.72;;;;;;;18.88;66.42;100513.41;4900385;29;20032;-88
2021/10/20 05:40:49;;;;;;;10.38;7.10;;;;;;;18.87;66.28;100502.09;4869145;29;20071;-88
2021/10/20 05:43:15;;;;;;;12.73;7.63;;;;;;;18.88;66.39;100513.41;4884805;29;20028;-90
2021/10/20 05:45:40;;;;;;;9.23;7.32;;;;;;;18.89;66.26;100517.72;4884612;29;20040;-89
2021/10/20 05:48:06;;;;;;;12.63;7.15;;;;;;;18.89;66.20;100536.81;4885276;29;20041;-89
2021/10/20 05:50:31;;;;;;;10.65;6.97;;;;;;;18.88;66.18;100503.81;4868810;29;20036;-89
2021/10/20 05:52:57;;;;;;;9.48;6.95;;;;;;;18.89;66.45;100486.44;4900575;29;20103;-88
2021/10/20 05:55:23;;;;;;;9.43;7.45;;;;;;;18.89;66.16;100486.44;4854247;29;20092;-88
2021/10/20 05:57:48;;;;;;;12.93;7.55;;;;;;;18.88;66.24;100458.66;4900352;29;20024;-87
2021/10/20 06:00:14;;;;;;;10.00;7.45;;;;;;;18.88;66.26;100453.44;4884818;29;20520;-88
2021/10/20 06:02:40;;;;;;;8.52;7.15;;;;;;;18.89;66.40;100452.53;4906018;29;20036;-88
2021/10/20 06:05:06;;;;;;;9.27;7.20;;;;;;;18.88;66.05;100433.44;4905627;29;20024;-89
2021/10/20 06:07:32;;;;;;;8.45;7.07;;;;;;;18.88;66.36;100446.47;4891244;29;20051;-89
2021/10/20 06:09:57;;;;;;;10.60;6.88;;;;;;;18.88;66.15;100463.88;4886428;29;20118;-88
2021/10/20 06:12:23;;;;;;;8.80;7.03;;;;;;;18.88;66.14;100453.44;4868777;29;20033;-89
2021/10/20 06:14:50;;;;;;;8.90;7.25;;;;;;;18.88;66.34;100430.81;4878331;29;20037;-90
2021/10/20 06:17:16;;;;;;;8.63;7.22;;;;;;;18.88;66.30;100443.00;4884700;29;20031;-90
2021/10/20 06:19:41;;;;;;;8.27;7.38;;;;;;;18.88;66.15;100419.53;4884320;29;20024;-90
2021/10/20 06:22:07;;;;;;;7.68;6.88;;;;;;;18.88;66.22;100435.19;4884166;29;20028;-91
2021/10/20 06:24:33;;;;;;;9.68;7.35;;;;;;;18.89;66.28;100432.53;4899459;29;20099;-90
2021/10/20 06:26:58;;;;;;;8.57;6.93;;;;;;;18.87;66.25;100425.63;4852843;29;20036;-91
2021/10/20 06:29:26;;;;;;;8.63;7.03;;;;;;;18.88;66.15;100406.50;4868161;29;20500;-92
2021/10/20 06:31:52;;;;;;;7.90;6.55;;;;;;;18.88;66.13;100396.09;4884024;29;20478;-90
2021/10/20 06:34:17;;;;;;;9.20;7.38;;;;;;;18.88;66.22;100409.13;4900870;29;20035;-89
2021/10/20 06:36:42;;;;;;;10.63;7.20;;;;;;;18.88;66.11;100402.16;4852995;29;20131;-90
2021/10/20 06:39:08;;;;;;;8.20;6.78;;;;;;;18.88;66.06;100402.16;4868401;29;20028;-91
2021/10/20 06:41:33;;;;;;;8.05;6.35;;;;;;;18.88;66.18;100391.72;4868103;29;20056;-90
2021/10/20 06:43:59;;;;;;;9.05;7.47;;;;;;;18.88;66.20;100385.66;4882875;29;20029;-90
2021/10/20 06:46:25;;;;;;;9.63;6.50;;;;;;;18.88;65.94;100383.91;4883840;29;20029;-88
2021/10/20 06:48:50;;;;;;;11.80;6.85;;;;;;;18.88;66.04;100394.31;4883612;29;20036;-89
2021/10/20 06:51:16;;;;;;;7.88;6.95;;;;;;;18.89;66.24;100390.81;4883459;29;20104;-90
2021/10/20 06:53:41;;;;;;;9.38;7.22;;;;;;;18.90;66.08;100394.28;4899200;29;20040;-90
2021/10/20 06:56:07;;;;;;;9.02;6.78;;;;;;;18.90;66.29;100382.13;4868083;29;20020;-90
2021/10/20 06:58:34;;;;;;;11.02;6.97;;;;;;;18.90;66.42;100381.22;4899474;29;20032;-90
2021/10/20 07:01:03;;;;;;;8.70;6.97;;;;;;;18.89;66.20;100372.56;4884292;29;20037;-91
2021/10/20 07:03:31;;;;;;;8.15;6.70;;;;;;;18.91;66.03;100380.34;4868790;29;20040;-90
2021/10/20 07:05:56;;;;;;;9.52;6.80;;;;;;;18.90;66.18;100382.13;4869607;29;20072;-89
2021/10/20 07:08:22;;;;;;;9.02;7.15;;;;;;;18.91;66.08;100362.09;4899545;29;20036;-88
2021/10/20 07:10:53;;;;;;;8.18;6.60;;;;;;;18.92;65.99;100348.16;4867907;29;20033;-84
2021/10/20 07:13:18;;;;;;;8.02;6.72;;;;;;;18.93;65.79;100330.78;4867258;29;20505;-85
2021/10/20 07:15:45;;;;;;;7.47;6.50;;;;;;;18.96;65.80;100315.91;4883173;29;20025;-84
2021/10/20 07:18:11;;;;;;;8.93;6.72;;;;;;;18.97;65.74;100295.94;4868072;29;20450;-83
2021/10/20 07:20:36;;;;;;;8.52;6.53;;;;;;;18.97;65.91;100285.50;4882363;29;20493;-84
2021/10/20 07:23:02;;;;;;;7.25;6.40;;;;;;;18.98;65.55;100272.41;4851370;29;20076;-84
2021/10/20 07:25:27;;;;;;;8.27;6.85;;;;;;;19.00;65.66;100248.91;4882097;29;20389;-84
2021/10/20 07:27:52;;;;;;;7.80;6.70;;;;;;;19.00;65.76;100236.72;4882400;29;20033;-83
2021/10/20 07:30:18;;;;;;;8.30;6.85;;;;;;;18.99;65.63;100239.38;4897571;29;20481;-87
2021/10/20 07:32:44;;;;;;;7.20;6.50;;;;;;;18.98;65.92;100246.34;4866599;29;20127;-84
2021/10/20 07:35:12;;;;;;;7.88;7.03;;;;;;;18.96;65.89;100250.72;4881973;29;20123;-82
2021/10/20 07:37:38;;;;;;;7.80;6.80;;;;;;;18.96;65.64;100250.72;4882174;29;20176;-85
2021/10/20 07:40:05;;;;;;;8.05;6.57;;;;;;;18.94;65.90;100243.84;4881977;29;20029;-85
2021/10/20 07:42:32;;;;;;;7.03;6.32;;;;;;;18.95;65.66;100233.38;4898570;29;20036;-84
2021/10/20 07:44:58;;;;;;;7.70;6.50;;;;;;;18.97;65.64;100235.97;4866817;29;20033;-81
2021/10/20 07:47:26;;;;;;;6.90;6.15;;;;;;;19.00;65.62;100265.41;4881542;29;20039;-83
2021/10/20 07:49:54;;;;;;;7.43;6.20;;;;;;;19.02;65.45;100287.09;4882166;29;20032;-84
2021/10/20 07:52:23;;;;;;;7.60;6.22;;;;;;;19.01;65.59;100308.88;4866498;29;20028;-84
2021/10/20 07:54:52;;;;;;;8.40;6.53;;;;;;;19.02;65.61;100327.97;4882107;29;20498;-84
2021/10/20 07:57:18;;;;;;;6.82;6.05;;;;;;;19.01;65.68;100347.97;4896904;29;20016;-82
2021/10/20 07:59:45;;;;;;;7.00;6.28;;;;;;;18.99;65.48;100360.19;4866563;29;20051;-84
2021/10/20 08:02:10;;;;;;;7.05;6.30;;;;;;;18.98;65.63;100360.22;4897476;29;20443;-84
2021/10/20 08:04:36;;;;;;;7.38;6.32;;;;;;;18.96;65.66;100356.78;4881916;29;20117;-83
2021/10/20 08:07:04;;;;;;;6.32;5.72;;;;;;;18.95;65.76;100348.13;4896879;29;20124;-81
2021/10/20 08:09:30;;;;;;;6.90;5.88;;;;;;;18.98;65.73;100353.25;4881535;29;20028;-85
2021/10/20 08:11:55;;;;;;;7.32;5.95;;;;;;;18.95;65.77;100334.22;4866055;29;20565;-86
2021/10/20 08:14:21;;;;;;;7.45;6.57;;;;;;;18.95;66.11;100329.00;4881598;29;20032;-83
2021/10/20 08:16:46;;;;;;;7.32;6.50;;;;;;;18.96;65.72;100320.28;4865987;29;20374;-81
2021/10/20 08:19:11;;;;;;;8.52;6.30;;;;;;;18.94;65.67;100327.28;4881462;29;20036;-81
2021/10/20 08:21:37;;;;;;;27.42;10.40;;;;;;;18.94;65.68;100316.84;4898125;29;20393;-82
2021/10/20 08:24:02;;;;;;;31.08;11.75;;;;;;;18.95;65.51;100313.38;4881353;29;20041;-81
2021/10/20 08:26:28;;;;;;;35.25;11.93;;;;;;;18.96;65.72;100312.47;4881588;29;20043;-80
2021/10/20 08:28:53;;;;;;;30.40;11.27;;;;;;;18.98;65.50;100315.88;4881419;29;20040;-79
2021/10/20 08:31:18;;;;;;;25.02;10.05;;;;;;;18.99;65.53;100300.22;4881176;29;20033;-80
2021/10/20 08:33:44;;;;;;;27.98;10.27;;;;;;;19.01;65.52;100298.44;4865860;29;20032;-82
2021/10/20 08:36:09;;;;;;;27.02;10.57;;;;;;;19.07;65.38;100297.41;4850502;29;20067;-84
2021/10/20 08:38:35;;;;;;;23.95;10.55;;;;;;;19.15;65.53;100289.41;4896608;29;20024;-82
2021/10/20 08:41:02;;;;;;;23.08;8.90;;;;;;;19.15;65.29;100290.25;4881107;29;20036;-82
2021/10/20 08:43:27;;;;;;;21.75;8.82;;;;;;;19.17;64.99;100277.19;4881456;29;20092;-83
2021/10/20 08:45:53;;;;;;;24.00;9.85;;;;;;;19.13;65.03;100276.41;4881094;29;20120;-81
2021/10/20 08:48:21;;;;;;;20.85;9.55;;;;;;;19.16;64.98;100270.25;4865507;29;20123;-78
2021/10/20 08:50:59;;;;;;;19.15;8.55;;;;;;;19.19;64.87;100257.16;4897641;29;20028;-83
2021/10/20 08:53:25;;;;;;;22.70;8.85;;;;;;;19.17;65.05;100264.16;4865720;29;20067;-82
2021/10/20 08:55:53;;;;;;;16.42;8.77;;;;;;;19.18;64.57;100252.81;4881037;29;20035;-79
2021/10/20 08:58:21;;;;;;;17.40;8.23;;;;;;;19.21;64.99;100251.00;4897903;29;20382;-81
2021/10/20 09:00:46;;;;;;;14.50;7.82;;;;;;;19.29;64.62;100258.59;4881375;29;20028;-82
2021/10/20 09:03:12;;;;;;;15.32;8.65;;;;;;;19.25;64.56;100256.97;4881269;29;20028;-84
2021/10/20 09:05:37;;;;;;;16.40;7.72;;;;;;;19.22;64.81;100251.84;4897443;29;20048;-82
2021/10/20 09:08:04;;;;;;;18.15;8.65;;;;;;;19.20;64.64;100267.50;4881881;29;20056;-81
2021/10/20 09:10:31;;;;;;;15.30;7.47;;;;;;;19.19;64.85;100251.94;4899734;29;20043;-82
2021/10/20 09:12:58;;;;;;;13.75;7.82;;;;;;;19.19;64.78;100231.06;4899881;29;20116;-81
2021/10/20 09:15:26;;;;;;;15.38;7.60;;;;;;;19.17;64.92;100235.47;4899754;29;20025;-78
2021/10/20 09:17:54;;;;;;;10.90;6.85;;;;;;;19.13;64.94;100220.78;4884262;29;20029;-80
2021/10/20 09:20:24;;;;;;;13.60;7.28;;;;;;;19.09;64.97;100210.41;4884665;29;20029;-89
2021/10/20 09:22:56;;;;;;;13.15;7.38;;;;;;;19.10;65.05;100196.50;4884788;29;20032;-88
2021/10/20 09:25:25;;;;;;;12.63;7.03;;;;;;;19.10;64.89;100196.50;4900294;29;20029;-88
2021/10/20 09:27:52;;;;;;;12.95;7.03;;;;;;;19.07;64.91;100206.97;4884870;29;20036;-89
2021/10/20 09:30:18;;;;;;;14.68;7.40;;;;;;;19.06;65.18;100183.56;4900284;29;20496;-88
2021/10/20 09:32:44;;;;;;;13.57;6.95;;;;;;;19.03;65.15;100205.38;4884561;29;20037;-88
2021/10/20 09:35:12;;;;;;;12.52;7.18;;;;;;;19.02;65.25;100208.00;4853165;29;20363;-88
2021/10/20 09:37:39;;;;;;;13.93;6.85;;;;;;;19.02;65.17;100210.63;4884895;29;20047;-90
2021/10/20 09:40:07;;;;;;;12.57;6.90;;;;;;;19.02;65.16;100203.66;4900132;29;20370;-89
2021/10/20 09:42:53;;;;;;;11.48;7.43;;;;;;;19.03;65.01;100222.75;4899877;29;20092;-89
2021/10/20 09:45:21;;;;;;;12.15;7.18;;;;;;;19.04;64.99;100206.22;4884090;29;20060;-90
2021/10/20 09:47:49;;;;;;;11.18;6.40;;;;;;;19.05;65.10;100215.75;4884201;29;20071;-90
2021/10/20 09:50:17;;;;;;;10.05;6.85;;;;;;;19.07;65.12;100211.34;4853315;29;20123;-89
2021/10/20 09:52:47;;;;;;;10.55;7.00;;;;;;;19.08;64.90;100195.66;4884340;29;20041;-90
2021/10/20 09:55:16;;;;;;;9.80;6.68;;;;;;;19.08;64.83;100195.66;4900721;29;20048;-88
2021/10/20 09:57:42;;;;;;;9.82;6.50;;;;;;;19.10;64.78;100206.06;4900729;29;20035;-88
2021/10/20 10:00:08;;;;;;;12.00;7.13;;;;;;;19.13;64.81;100207.75;4868489;29;20028;-88
2021/10/20 10:02:33;;;;;;;9.50;6.47;;;;;;;19.16;64.59;100205.03;4868505;29;20032;-89
2021/10/20 10:04:59;;;;;;;10.15;6.50;;;;;;;19.22;64.49;100197.06;4883805;29;20072;-89
2021/10/20 10:07:24;;;;;;;9.10;5.78;;;;;;;19.28;64.20;100204.72;4853140;29;20033;-89
2021/10/20 10:09:49;;;;;;;10.88;6.50;;;;;;;19.29;64.12;100201.22;4883815;29;20111;-89
2021/10/20 10:12:22;;;;;;;10.80;6.40;;;;;;;19.27;64.26;100198.66;4868392;29;20196;-89
2021/10/20 10:15:01;;;;;;;9.70;6.13;;;;;;;19.25;64.43;100223.94;4883654;29;20048;-89
2021/10/20 10:17:28;;;;;;;11.02;6.43;;;;;;;19.22;64.50;100203.13;4883550;29;20063;-88
2021/10/20 10:20:04;;;;;;;10.65;6.45;;;;;;;19.20;64.46;100212.75;4900213;29;20036;-89
2021/10/20 10:22:29;;;;;;;10.98;6.43;;;;;;;19.24;64.26;100210.91;4899189;29;20177;-88
2021/10/20 10:25:07;;;;;;;9.88;5.82;;;;;;;19.31;64.15;100202.03;4867987;29;20115;-89
2021/10/20 10:27:32;;;;;;;10.10;6.35;;;;;;;19.31;64.20;100228.13;4899151;29;20032;-88
2021/10/20 10:30:05;;;;;;;11.00;6.72;;;;;;;19.32;64.26;100206.38;4883742;29;20028;-89
2021/10/20 10:32:34;;;;;;;9.13;5.78;;;;;;;19.29;64.01;100196.00;4883609;29;20070;-89
2021/10/20 10:35:05;;;;;;;9.10;6.10;;;;;;;19.26;64.26;100214.34;4883364;29;20032;-89
2021/10/20 10:37:35;;;;;;;9.50;6.00;;;;;;;19.23;64.39;100217.91;4898859;29;20025;-89
2021/10/20 10:40:21;;;;;;;8.40;5.68;;;;;;;19.22;64.57;100207.50;4898875;29;20032;-89
2021/10/20 10:42:48;;;;;;;7.50;6.10;;;;;;;19.23;64.44;100204.84;4898234;29;20085;-81
2021/10/20 10:45:21;;;;;;;8.70;5.70;;;;;;;19.24;64.25;100213.53;4898098;29;20035;-82
2021/10/20 10:48:04;;;;;;;9.00;5.80;;;;;;;19.25;64.34;100217.84;4882736;29;20044;-82
2021/10/20 10:50:49;;;;;;;7.87;5.37;;;;;;;19.25;64.16;100202.19;4882404;29;20478;-83
2021/10/20 10:53:27;;;;;;;9.43;5.40;;;;;;;19.27;64.20;100213.44;4899194;29;20544;-83
2021/10/20 10:56:01;;;;;;;8.50;5.82;;;;;;;19.28;64.20;100216.00;4882506;29;20032;-83
2021/10/20 10:58:27;;;;;;;8.25;5.72;;;;;;;19.29;64.15;100209.03;4882209;29;20036;-84
2021/10/20 11:00:52;;;;;;;6.55;5.20;;;;;;;19.29;63.97;100220.34;4866647;29;20036;-83
2021/10/20 11:03:21;;;;;;;7.78;5.57;;;;;;;19.28;64.16;100208.19;4881965;29;20036;-83
2021/10/20 11:05:54;;;;;;;8.65;5.68;;;;;;;19.27;64.33;100201.28;4897389;29;20489;-83
2021/10/20 11:08:20;;;;;;;7.07;5.10;;;;;;;19.26;64.32;100201.31;4898976;29;20020;-84
2021/10/20 11:10:47;;;;;;;7.88;4.95;;;;;;;19.28;64.09;100207.34;4897709;29;20025;-83
2021/10/20 11:13:13;;;;;;;8.07;5.03;;;;;;;19.26;64.02;100206.53;4882190;29;20084;-83
2021/10/20 11:15:57;;;;;;;9.52;5.60;;;;;;;19.27;64.14;100203.00;4882464;29;20122;-83
2021/10/20 11:18:24;;;;;;;9.20;5.40;;;;;;;19.26;64.12;100203.91;4867126;29;20762;-83
2021/10/20 11:20:49;;;;;;;9.02;5.45;;;;;;;19.26;64.18;100215.19;4882116;29;20030;-84
2021/10/20 11:23:19;;;;;;;9.57;5.38;;;;;;;19.26;64.31;100202.16;4866533;29;20032;-82